Time;durP1;ratioP1;P1;durP2;ratioP2;P2;SDS_P1;SDS_P2;PMS_P1;PMS_P2;Temp;Humidity;BMP_temperature;BMP_pressure;BME280_temperature;BME280_humidity;BME280_pressure;Samples;Min_cycle;Max_cycle;Signal;HPM_P1;HPM_P2
2021/01/22 00:00:58;;;;;;;1.70;1.00;;;22.30;31.70;;;;;;5071049;28;20442;-73
2021/01/22 00:03:24;;;;;;;1.40;0.90;;;22.30;31.70;;;;;;5071077;28;20498;-73
2021/01/22 00:05:50;;;;;;;1.50;0.80;;;22.30;31.60;;;;;;5070595;28;20391;-73
2021/01/22 00:08:15;;;;;;;1.60;0.90;;;22.30;31.60;;;;;;5071086;28;20441;-74
2021/01/22 00:10:41;;;;;;;1.50;0.95;;;22.30;32.10;;;;;;5070855;28;20376;-74
2021/01/22 00:13:07;;;;;;;1.20;0.90;;;22.20;31.50;;;;;;5071062;28;20388;-73
2021/01/22 00:15:32;;;;;;;1.38;1.00;;;22.20;31.50;;;;;;5069731;28;20418;-72
2021/01/22 00:17:58;;;;;;;1.50;1.00;;;22.20;31.50;;;;;;5070568;28;20424;-73
2021/01/22 00:20:24;;;;;;;1.70;1.00;;;22.20;31.60;;;;;;5072851;28;20388;-74
2021/01/22 00:22:49;;;;;;;1.70;1.10;;;22.20;31.50;;;;;;5074327;28;20426;-73
2021/01/22 00:25:15;;;;;;;1.90;1.10;;;22.20;31.60;;;;;;5074289;28;20388;-73
2021/01/22 00:27:41;;;;;;;1.50;1.10;;;22.10;31.50;;;;;;5072800;28;20806;-73
2021/01/22 00:30:07;;;;;;;1.77;1.08;;;22.20;31.60;;;;;;5074096;28;20392;-73
2021/01/22 00:32:33;;;;;;;2.08;1.17;;;22.20;31.50;;;;;;5074022;28;20395;-73
2021/01/22 00:34:58;;;;;;;1.77;1.02;;;22.20;31.50;;;;;;5073967;28;20399;-73
2021/01/22 00:37:24;;;;;;;1.90;1.30;;;22.20;31.50;;;;;;5074278;28;20391;-72
2021/01/22 00:39:50;;;;;;;1.98;1.20;;;22.20;31.50;;;;;;5073598;28;20476;-73
2021/01/22 00:42:16;;;;;;;1.80;1.13;;;22.20;31.40;;;;;;5073873;28;20424;-73
2021/01/22 00:44:41;;;;;;;1.90;0.93;;;22.20;31.50;;;;;;5073960;28;20929;-73
2021/01/22 00:47:07;;;;;;;2.00;1.17;;;22.20;31.40;;;;;;5073730;28;20395;-73
2021/01/22 00:49:33;;;;;;;1.90;1.20;;;22.20;31.40;;;;;;5072276;28;20452;-71
2021/01/22 00:51:59;;;;;;;1.80;1.10;;;22.20;31.40;;;;;;5073111;28;20403;-73
2021/01/22 00:54:24;;;;;;;1.80;1.10;;;22.20;31.90;;;;;;5072646;28;20903;-73
2021/01/22 00:56:50;;;;;;;1.77;1.20;;;22.20;31.20;;;;;;5073769;28;20456;-73
2021/01/22 00:59:15;;;;;;;1.97;1.10;;;22.20;31.20;;;;;;5073845;28;20407;-73
2021/01/22 01:01:41;;;;;;;2.08;1.10;;;22.20;31.20;;;;;;5073292;28;20395;-74
2021/01/22 01:04:07;;;;;;;1.80;1.17;;;22.20;31.20;;;;;;5072097;28;20407;-59
2021/01/22 01:06:32;;;;;;;1.77;1.20;;;22.20;31.20;;;;;;5073756;28;20950;-73
2021/01/22 01:08:58;;;;;;;1.67;1.20;;;22.20;31.20;;;;;;5072273;28;20431;-73
2021/01/22 01:11:24;;;;;;;1.50;1.00;;;22.20;31.20;;;;;;5073602;28;20418;-73
2021/01/22 01:13:49;;;;;;;1.98;1.20;;;22.20;31.20;;;;;;5072898;28;20422;-73
2021/01/22 01:16:15;;;;;;;1.55;1.10;;;22.20;31.20;;;;;;5072104;28;20384;-73
2021/01/22 01:18:41;;;;;;;1.80;1.13;;;22.20;31.10;;;;;;5073280;28;20420;-73
2021/01/22 01:21:07;;;;;;;1.67;1.08;;;22.20;31.20;;;;;;5073354;28;20388;-74
2021/01/22 01:23:32;;;;;;;1.40;1.00;;;22.10;31.10;;;;;;5073357;28;20446;-73
2021/01/22 01:25:58;;;;;;;1.92;1.10;;;22.20;31.20;;;;;;5071368;28;20418;-74
2021/01/22 01:28:23;;;;;;;1.53;1.00;;;22.20;31.10;;;;;;5073091;28;20441;-73
2021/01/22 01:30:49;;;;;;;1.40;0.90;;;22.20;31.10;;;;;;5072741;28;20384;-73
2021/01/22 01:33:15;;;;;;;1.60;1.03;;;22.20;31.00;;;;;;5072642;28;20736;-71
2021/01/22 01:35:40;;;;;;;1.48;0.93;;;22.20;31.00;;;;;;5072466;28;20792;-62
2021/01/22 01:38:06;;;;;;;1.37;1.00;;;22.20;31.10;;;;;;5072517;28;20857;-73
2021/01/22 01:40:32;;;;;;;1.83;1.15;;;22.10;31.00;;;;;;5072849;28;20747;-73
2021/01/22 01:42:57;;;;;;;1.20;0.90;;;22.10;31.10;;;;;;5072846;28;20442;-72
2021/01/22 01:45:24;;;;;;;1.38;1.10;;;22.10;31.10;;;;;;5072809;28;20384;-74
2021/01/22 01:47:51;;;;;;;1.17;0.80;;;22.10;31.10;;;;;;5071280;28;21386;-73
2021/01/22 01:50:17;;;;;;;1.40;1.00;;;22.00;31.10;;;;;;5072684;28;20379;-74
2021/01/22 01:52:43;;;;;;;1.70;0.90;;;22.00;31.00;;;;;;5072851;28;20400;-74
2021/01/22 01:55:09;;;;;;;1.30;1.00;;;22.10;31.10;;;;;;5072659;28;20441;-74
2021/01/22 01:57:36;;;;;;;1.55;0.80;;;22.00;31.00;;;;;;5072570;28;20387;-73
2021/01/22 02:00:05;;;;;;;1.50;0.93;;;22.00;31.10;;;;;;5071991;28;20395;-71
2021/01/22 02:02:31;;;;;;;1.30;0.90;;;22.00;31.00;;;;;;5072131;28;20771;-70
2021/01/22 02:04:57;;;;;;;1.37;0.80;;;22.00;31.10;;;;;;5072264;28;20388;-61
2021/01/22 02:07:23;;;;;;;1.25;0.90;;;22.00;31.00;;;;;;5072636;28;20442;-74
2021/01/22 02:09:49;;;;;;;1.47;0.97;;;22.00;31.00;;;;;;5071975;28;20868;-73
2021/01/22 02:12:15;;;;;;;1.15;0.80;;;22.10;31.00;;;;;;5072397;28;20467;-72
2021/01/22 02:14:42;;;;;;;1.30;0.90;;;22.10;31.00;;;;;;5072163;28;20470;-75
2021/01/22 02:17:09;;;;;;;1.70;1.00;;;22.10;30.90;;;;;;5072137;28;20391;-71
2021/01/22 02:19:53;;;;;;;1.55;1.00;;;22.10;30.80;;;;;;5072112;28;20449;-71
2021/01/22 02:22:20;;;;;;;1.33;0.90;;;22.00;30.90;;;;;;5071961;28;20460;-61
2021/01/22 02:24:46;;;;;;;1.30;0.98;;;22.00;30.90;;;;;;5070799;28;20760;-73
2021/01/22 02:27:16;;;;;;;1.33;0.87;;;22.00;30.90;;;;;;5071951;28;20415;-72
2021/01/22 02:29:43;;;;;;;1.42;1.00;;;22.00;30.90;;;;;;5072087;28;20537;-73
2021/01/22 02:32:12;;;;;;;1.50;0.90;;;22.00;30.90;;;;;;5071785;28;20372;-73
2021/01/22 02:34:40;;;;;;;1.33;0.90;;;22.00;30.80;;;;;;5071462;28;20814;-73
2021/01/22 02:37:10;;;;;;;1.40;0.90;;;22.00;30.90;;;;;;5071795;28;20526;-73
2021/01/22 02:39:40;;;;;;;1.33;0.82;;;22.00;30.90;;;;;;5071799;28;20395;-73
2021/01/22 02:42:08;;;;;;;1.40;0.93;;;22.00;30.80;;;;;;5070370;28;20767;-73
2021/01/22 02:44:35;;;;;;;1.45;1.10;;;22.00;30.80;;;;;;5071762;28;20463;-73
2021/01/22 02:47:04;;;;;;;1.50;1.00;;;22.00;30.80;;;;;;5071702;28;20861;-70
2021/01/22 02:49:30;;;;;;;1.55;0.90;;;22.00;30.80;;;;;;5071854;28;20586;-73
2021/01/22 02:51:58;;;;;;;1.60;0.90;;;22.00;30.80;;;;;;5071237;28;20494;-70
2021/01/22 02:54:24;;;;;;;1.30;0.90;;;22.10;30.80;;;;;;5071706;28;20391;-73
2021/01/22 02:56:56;;;;;;;1.60;1.00;;;22.10;30.70;;;;;;5071581;28;20402;-73
2021/01/22 03:00:11;;;;;;;1.65;0.93;;;22.00;30.70;;;;;;5071936;28;20383;-73
2021/01/22 03:02:46;;;;;;;1.48;1.00;;;22.00;30.70;;;;;;5057768;28;20419;-73
2021/01/22 03:05:15;;;;;;;1.42;1.00;;;22.10;30.70;;;;;;5071489;28;20391;-73
2021/01/22 03:07:48;;;;;;;1.80;1.00;;;22.00;30.70;;;;;;5071588;28;20423;-71
2021/01/22 03:10:18;;;;;;;1.40;1.00;;;22.00;30.70;;;;;;5071348;28;20921;-73
2021/01/22 03:12:47;;;;;;;1.40;1.00;;;22.00;30.70;;;;;;5071422;28;20864;-73
2021/01/22 03:15:14;;;;;;;1.67;1.05;;;21.90;30.70;;;;;;5071497;28;20463;-73
2021/01/22 03:17:40;;;;;;;1.35;0.85;;;21.90;30.80;;;;;;5071523;28;20375;-73
2021/01/22 03:20:07;;;;;;;1.50;1.00;;;21.90;30.70;;;;;;5070899;28;20461;-73
2021/01/22 03:22:32;;;;;;;1.90;1.10;;;21.90;30.70;;;;;;5070130;28;20407;-73
2021/01/22 03:24:58;;;;;;;1.50;1.00;;;21.90;30.70;;;;;;5071453;28;20395;-74
2021/01/22 03:27:24;;;;;;;1.70;1.00;;;21.90;30.70;;;;;;5069987;28;20403;-73
2021/01/22 03:29:49;;;;;;;1.40;0.90;;;21.90;30.70;;;;;;5071039;28;20420;-73
2021/01/22 03:32:15;;;;;;;1.50;1.10;;;21.90;30.70;;;;;;5070939;28;20392;-73
2021/01/22 03:34:40;;;;;;;1.67;1.17;;;21.90;30.70;;;;;;5071007;28;20764;-74
2021/01/22 03:37:06;;;;;;;1.67;1.07;;;21.90;30.70;;;;;;5071316;28;20390;-74
2021/01/22 03:39:34;;;;;;;1.48;0.90;;;21.90;30.70;;;;;;5071304;28;20872;-74
2021/01/22 03:42:00;;;;;;;1.65;1.00;;;21.90;30.70;;;;;;5070638;28;20760;-73
2021/01/22 03:44:26;;;;;;;1.58;1.00;;;21.90;30.60;;;;;;5071308;28;20384;-73
2021/01/22 03:46:52;;;;;;;1.20;0.98;;;21.90;30.60;;;;;;5071229;28;20449;-73
2021/01/22 03:49:17;;;;;;;1.50;1.00;;;21.90;30.70;;;;;;5071108;28;20375;-73
2021/01/22 03:51:43;;;;;;;1.35;0.90;;;21.90;30.80;;;;;;5070900;28;20876;-74
2021/01/22 03:54:09;;;;;;;1.90;1.00;;;21.90;30.60;;;;;;5072909;28;20395;-74
2021/01/22 03:56:34;;;;;;;1.38;1.00;;;21.90;30.60;;;;;;5075014;28;20421;-70
2021/01/22 03:59:00;;;;;;;1.67;1.00;;;21.90;30.60;;;;;;5074858;28;20737;-73
2021/01/22 04:01:28;;;;;;;1.55;1.00;;;21.90;30.60;;;;;;5074794;28;20391;-74
2021/01/22 04:03:55;;;;;;;1.58;1.05;;;21.90;30.60;;;;;;5074111;28;20400;-73
2021/01/22 04:06:20;;;;;;;2.03;1.00;;;21.90;30.60;;;;;;5074708;28;20431;-74
2021/01/22 04:08:46;;;;;;;1.80;1.20;;;21.90;30.60;;;;;;5074493;28;20857;-61
2021/01/22 04:11:12;;;;;;;2.10;1.10;;;21.80;30.70;;;;;;5074558;28;20387;-73
2021/01/22 04:13:38;;;;;;;1.70;1.20;;;21.90;30.80;;;;;;5074462;28;20876;-70
2021/01/22 04:16:04;;;;;;;1.40;1.10;;;21.90;30.50;;;;;;5073854;28;20549;-74
2021/01/22 04:18:30;;;;;;;1.70;1.17;;;22.00;30.50;;;;;;5073638;28;20376;-73
2021/01/22 04:20:56;;;;;;;2.00;1.20;;;21.90;30.30;;;;;;5074383;28;20396;-74
2021/01/22 04:23:21;;;;;;;1.97;1.10;;;21.90;30.90;;;;;;5074500;28;20472;-73
2021/01/22 04:25:48;;;;;;;2.28;1.10;;;22.00;31.10;;;;;;5074122;28;20390;-73
2021/01/22 04:28:14;;;;;;;3.00;1.10;;;22.00;30.80;;;;;;5074018;28;20395;-73
2021/01/22 04:30:40;;;;;;;3.75;1.10;;;22.00;31.30;;;;;;5074379;28;20384;-75
2021/01/22 04:33:06;;;;;;;2.05;1.00;;;22.10;32.20;;;;;;5074320;28;20899;-62
2021/01/22 04:35:32;;;;;;;2.42;1.13;;;22.10;32.10;;;;;;5073687;28;20404;-74
2021/01/22 04:37:58;;;;;;;2.00;1.10;;;22.10;32.50;;;;;;5073527;28;20395;-72
2021/01/22 04:40:27;;;;;;;2.83;0.90;;;22.10;31.90;;;;;;5089525;28;20383;-59
2021/01/22 04:42:53;;;;;;;1.77;1.00;;;22.10;31.50;;;;;;5072334;28;20456;-58
2021/01/22 04:45:19;;;;;;;3.28;1.00;;;22.10;31.70;;;;;;5074146;28;20384;-72
2021/01/22 04:47:45;;;;;;;4.95;1.00;;;22.00;31.50;;;;;;5073832;28;20952;-73
2021/01/22 04:50:14;;;;;;;2.65;1.00;;;22.00;31.60;;;;;;5071924;28;20395;-73
2021/01/22 04:52:40;;;;;;;3.65;1.50;;;22.00;31.40;;;;;;5073962;28;20403;-73
2021/01/22 04:55:07;;;;;;;4.28;1.20;;;22.00;31.40;;;;;;5073615;28;20384;-73
2021/01/22 04:57:38;;;;;;;2.00;1.17;;;22.00;31.20;;;;;;5073625;28;20388;-73
2021/01/22 05:00:05;;;;;;;2.60;0.90;;;22.10;31.00;;;;;;5073155;28;20387;-63
2021/01/22 05:02:32;;;;;;;2.20;1.00;;;22.00;31.10;;;;;;5073387;28;20477;-72
2021/01/22 05:04:58;;;;;;;2.93;1.00;;;22.00;31.20;;;;;;5072475;28;20379;-72
2021/01/22 05:07:24;;;;;;;1.42;0.93;;;22.00;31.20;;;;;;5073560;28;20406;-72
2021/01/22 05:09:50;;;;;;;2.10;1.00;;;22.00;31.30;;;;;;5073217;28;20923;-64
2021/01/22 05:12:16;;;;;;;2.75;1.10;;;22.00;31.10;;;;;;5073426;28;20395;-73
2021/01/22 05:14:42;;;;;;;2.20;1.03;;;22.00;31.10;;;;;;5073510;28;20749;-72
2021/01/22 05:17:11;;;;;;;1.90;0.90;;;21.90;31.00;;;;;;5073366;28;20399;-73
2021/01/22 05:19:42;;;;;;;1.70;0.80;;;22.00;31.00;;;;;;5073150;28;20474;-72
2021/01/22 05:22:13;;;;;;;1.45;0.90;;;21.90;30.80;;;;;;5072315;28;20453;-73
2021/01/22 05:24:39;;;;;;;2.38;1.00;;;21.90;31.00;;;;;;5073341;28;20466;-73
2021/01/22 05:27:13;;;;;;;1.40;0.90;;;21.90;30.90;;;;;;5071954;28;20522;-73
2021/01/22 05:29:41;;;;;;;1.58;0.95;;;21.90;31.00;;;;;;5073034;28;20399;-59
2021/01/22 05:32:26;;;;;;;1.60;0.90;;;21.90;30.90;;;;;;5072444;28;20392;-61
2021/01/22 05:34:52;;;;;;;1.60;0.85;;;21.90;31.00;;;;;;5072796;28;20415;-72
2021/01/22 05:37:19;;;;;;;2.92;0.82;;;21.90;30.90;;;;;;5073176;28;20383;-72
2021/01/22 05:39:45;;;;;;;2.40;0.80;;;21.90;30.80;;;;;;5072914;28;20391;-63
2021/01/22 05:42:12;;;;;;;1.50;0.80;;;21.90;31.00;;;;;;5072117;28;20396;-70
2021/01/22 05:44:52;;;;;;;2.80;1.00;;;22.00;31.00;;;;;;5072809;28;20392;-72
2021/01/22 05:47:17;;;;;;;1.80;0.80;;;21.90;30.80;;;;;;5072830;28;20509;-72
2021/01/22 05:49:58;;;;;;;4.00;0.90;;;22.00;30.70;;;;;;5072771;28;20478;-73
2021/01/22 05:52:25;;;;;;;1.95;0.80;;;22.00;30.60;;;;;;5072917;28;20386;-73
2021/01/22 05:54:51;;;;;;;2.15;0.90;;;22.10;30.50;;;;;;5072601;28;20902;-73
2021/01/22 05:57:17;;;;;;;2.70;0.82;;;22.10;30.40;;;;;;5052637;28;20862;-73
2021/01/22 05:59:42;;;;;;;2.38;0.90;;;22.00;30.00;;;;;;5052561;28;20397;-73
2021/01/22 06:02:28;;;;;;;3.55;0.90;;;22.00;30.40;;;;;;5052101;28;20897;-73
2021/01/22 06:05:12;;;;;;;2.43;0.80;;;22.00;30.30;;;;;;5052732;28;20456;-73
2021/01/22 06:07:41;;;;;;;3.15;0.70;;;22.00;30.20;;;;;;5052858;28;20397;-73
2021/01/22 06:10:16;;;;;;;3.40;0.80;;;22.00;30.20;;;;;;5052149;28;20389;-70
2021/01/22 06:12:53;;;;;;;1.40;0.80;;;22.00;30.10;;;;;;5052839;28;20446;-72
2021/01/22 06:15:21;;;;;;;3.17;1.00;;;22.00;30.00;;;;;;5052531;28;20412;-73
2021/01/22 06:17:49;;;;;;;2.08;0.95;;;22.00;30.00;;;;;;5050907;28;20390;-72
2021/01/22 06:20:17;;;;;;;1.35;0.90;;;22.00;30.00;;;;;;5051991;28;20382;-72
2021/01/22 06:23:06;;;;;;;1.70;1.00;;;22.00;30.00;;;;;;5052354;28;20405;-73
2021/01/22 06:25:33;;;;;;;3.20;1.00;;;22.00;30.00;;;;;;5051563;28;20436;-73
2021/01/22 06:28:03;;;;;;;1.55;0.90;;;22.00;29.90;;;;;;5051724;28;20397;-64
2021/01/22 06:30:31;;;;;;;1.80;0.80;;;22.00;29.90;;;;;;5051859;28;20854;-73
2021/01/22 06:33:02;;;;;;;1.75;0.90;;;22.00;29.90;;;;;;5051705;28;20396;-58
2021/01/22 06:35:32;;;;;;;1.80;0.90;;;22.00;29.90;;;;;;5050625;28;20428;-72
2021/01/22 06:37:59;;;;;;;2.60;0.98;;;22.00;29.90;;;;;;5050308;28;20870;-74
2021/01/22 06:40:25;;;;;;;1.75;1.00;;;21.90;30.00;;;;;;5052015;28;20487;-72
2021/01/22 06:42:52;;;;;;;3.53;1.13;;;21.90;30.00;;;;;;5051885;28;20440;-74
2021/01/22 06:45:22;;;;;;;2.53;0.90;;;21.80;30.20;;;;;;5051875;28;20388;-73
2021/01/22 06:47:58;;;;;;;3.20;1.10;;;21.80;30.40;;;;;;5051480;28;20866;-70
2021/01/22 06:50:24;;;;;;;2.78;1.10;;;21.80;30.30;;;;;;5050725;28;20820;-73
2021/01/22 06:53:08;;;;;;;2.55;1.00;;;21.80;30.30;;;;;;5051810;28;20388;-73
2021/01/22 06:55:53;;;;;;;1.90;0.90;;;21.80;30.30;;;;;;5051845;28;20382;-71
2021/01/22 06:58:30;;;;;;;1.67;0.90;;;21.80;30.30;;;;;;5051209;28;20385;-76
2021/01/22 07:01:00;;;;;;;2.20;1.10;;;21.80;30.40;;;;;;5051959;28;20396;-74
2021/01/22 07:03:35;;;;;;;1.73;0.90;;;21.80;30.40;;;;;;5051997;28;20925;-76
2021/01/22 07:06:00;;;;;;;2.22;1.10;;;21.80;30.50;;;;;;5050127;28;20940;-58
2021/01/22 07:08:52;;;;;;;2.50;1.00;;;21.80;30.60;;;;;;5051316;28;20440;-64
2021/01/22 07:11:18;;;;;;;4.43;1.20;;;21.80;30.80;;;;;;5043507;28;20408;-74
2021/01/22 07:13:46;;;;;;;4.75;1.17;;;21.80;31.10;;;;;;5048358;28;20397;-65
2021/01/22 07:16:35;;;;;;;5.53;1.27;;;21.80;31.40;;;;;;5049052;28;20969;-72
2021/01/22 07:19:02;;;;;;;4.03;1.10;;;21.70;31.10;;;;;;5050857;28;20392;-59
2021/01/22 07:21:44;;;;;;;3.78;1.30;;;21.80;31.00;;;;;;5051074;28;20489;-61
2021/01/22 07:24:15;;;;;;;3.35;1.30;;;21.70;30.80;;;;;;5050741;28;20382;-71
2021/01/22 07:26:45;;;;;;;4.95;1.30;;;21.70;30.90;;;;;;5051192;28;20381;-69
2021/01/22 07:29:25;;;;;;;2.20;1.15;;;21.70;31.20;;;;;;5053829;28;20397;-62
2021/01/22 07:31:57;;;;;;;3.35;1.40;;;21.80;31.10;;;;;;5055375;28;20385;-72
2021/01/22 07:34:42;;;;;;;4.40;1.67;;;21.80;31.10;;;;;;5054845;28;20409;-64
2021/01/22 07:37:12;;;;;;;4.10;1.70;;;21.80;31.00;;;;;;5055206;28;20381;-72
2021/01/22 07:39:38;;;;;;;2.80;1.65;;;21.80;30.60;;;;;;5054571;28;20381;-72
2021/01/22 07:42:10;;;;;;;2.90;1.92;;;21.80;30.70;;;;;;5054280;28;20401;-71
2021/01/22 07:44:37;;;;;;;3.30;2.30;;;21.80;30.60;;;;;;5055045;28;20397;-72
2021/01/22 07:47:04;;;;;;;3.67;2.42;;;21.80;30.70;;;;;;5053201;28;20417;-71
2021/01/22 07:49:30;;;;;;;3.55;2.30;;;21.80;31.10;;;;;;5054473;28;20431;-72
2021/01/22 07:51:59;;;;;;;4.75;2.22;;;21.80;31.00;;;;;;5054091;28;20397;-68
2021/01/22 07:54:25;;;;;;;3.17;2.30;;;21.90;31.00;;;;;;5054633;28;20444;-73
2021/01/22 07:56:50;;;;;;;4.73;2.43;;;21.90;31.00;;;;;;5054614;28;20389;-73
2021/01/22 07:59:16;;;;;;;3.00;2.33;;;21.90;30.90;;;;;;5054906;28;20413;-66
2021/01/22 08:01:42;;;;;;;3.20;2.50;;;21.90;30.80;;;;;;5054576;28;20401;-72
2021/01/22 08:04:09;;;;;;;3.97;2.47;;;22.00;30.80;;;;;;5054089;28;20488;-73
2021/01/22 08:06:48;;;;;;;3.75;2.20;;;22.00;30.90;;;;;;5054486;28;20381;-61
2021/01/22 08:09:19;;;;;;;4.18;2.45;;;22.00;30.50;;;;;;5054657;28;20876;-72
2021/01/22 08:11:48;;;;;;;3.45;2.40;;;22.00;30.40;;;;;;5054329;28;20382;-69
2021/01/22 08:14:29;;;;;;;3.37;2.20;;;22.00;30.40;;;;;;5054002;28;20408;-73
2021/01/22 08:16:54;;;;;;;3.37;2.37;;;22.00;30.50;;;;;;5054420;28;20386;-68
2021/01/22 08:19:24;;;;;;;3.20;2.03;;;22.00;30.50;;;;;;5054804;28;20401;-73
2021/01/22 08:21:50;;;;;;;3.10;2.42;;;22.00;30.40;;;;;;5054363;28;20413;-73
2021/01/22 08:24:16;;;;;;;3.03;2.20;;;22.00;30.20;;;;;;5053843;28;20770;-73
2021/01/22 08:26:42;;;;;;;4.25;2.28;;;22.10;30.30;;;;;;5054265;28;20386;-73
2021/01/22 08:29:09;;;;;;;3.28;2.15;;;22.10;30.30;;;;;;5052955;28;20401;-73
2021/01/22 08:31:38;;;;;;;3.50;2.17;;;22.10;30.20;;;;;;5054285;28;20388;-72
2021/01/22 08:34:05;;;;;;;3.35;1.98;;;22.10;30.30;;;;;;5052390;28;20416;-72
2021/01/22 08:36:30;;;;;;;4.00;2.10;;;22.10;30.20;;;;;;5054182;28;20393;-73
2021/01/22 08:38:57;;;;;;;3.47;2.10;;;22.20;30.20;;;;;;5053748;28;20405;-73
2021/01/22 08:41:27;;;;;;;3.47;2.10;;;22.20;30.10;;;;;;5052711;28;20386;-70
2021/01/22 08:43:54;;;;;;;2.90;2.22;;;22.20;30.10;;;;;;5053794;28;20413;-72
2021/01/22 08:46:24;;;;;;;2.55;2.00;;;22.20;30.00;;;;;;5053364;28;20886;-71
2021/01/22 08:48:50;;;;;;;2.90;2.10;;;22.20;30.00;;;;;;5053714;28;20866;-73
2021/01/22 08:51:29;;;;;;;2.90;2.08;;;22.30;30.00;;;;;;5053924;28;20874;-73
2021/01/22 08:53:57;;;;;;;3.67;2.10;;;22.30;30.00;;;;;;5053757;28;20392;-73
2021/01/22 08:56:23;;;;;;;2.35;1.70;;;22.30;30.00;;;;;;5053372;28;20385;-73
2021/01/22 08:58:59;;;;;;;2.50;1.90;;;22.30;30.00;;;;;;5053634;28;20476;-72
2021/01/22 09:01:51;;;;;;;2.50;1.77;;;22.40;30.00;;;;;;5053720;28;20451;-70
2021/01/22 09:04:21;;;;;;;2.40;1.70;;;22.40;30.00;;;;;;5053200;28;20397;-73
2021/01/22 09:06:48;;;;;;;2.10;1.88;;;22.40;29.90;;;;;;5053824;28;20382;-73
2021/01/22 09:09:14;;;;;;;3.10;1.70;;;22.50;29.90;;;;;;5053657;28;20878;-70
2021/01/22 09:11:40;;;;;;;3.08;1.73;;;22.60;29.90;;;;;;5053458;28;20381;-59
2021/01/22 09:14:06;;;;;;;2.42;1.85;;;22.60;29.80;;;;;;5053100;28;20428;-73
2021/01/22 09:16:44;;;;;;;2.22;1.60;;;22.60;29.80;;;;;;5053473;28;20417;-71
2021/01/22 09:19:10;;;;;;;2.40;1.70;;;22.60;29.70;;;;;;5053262;28;20394;-70
2021/01/22 09:21:52;;;;;;;2.15;1.60;;;22.60;29.80;;;;;;5053288;28;20382;-73
2021/01/22 09:24:18;;;;;;;2.20;1.70;;;22.60;29.80;;;;;;5052736;28;20930;-74
2021/01/22 09:26:43;;;;;;;2.30;1.70;;;22.70;29.80;;;;;;5053202;28;20439;-73
2021/01/22 09:29:09;;;;;;;2.22;1.70;;;22.70;29.80;;;;;;5053026;28;20382;-74
2021/01/22 09:31:34;;;;;;;2.30;1.40;;;22.70;29.80;;;;;;5053131;28;20382;-74
2021/01/22 09:34:00;;;;;;;3.05;1.77;;;22.70;29.80;;;;;;5052721;28;20774;-74
2021/01/22 09:36:26;;;;;;;2.10;1.60;;;22.70;29.80;;;;;;5052536;28;20432;-74
2021/01/22 09:38:52;;;;;;;2.40;1.40;;;22.70;29.80;;;;;;5052823;28;20393;-70
2021/01/22 09:41:17;;;;;;;2.17;1.57;;;22.70;29.70;;;;;;5052920;28;20393;-74
2021/01/22 09:43:43;;;;;;;3.10;1.70;;;22.80;29.70;;;;;;5051598;28;20421;-73
2021/01/22 09:46:08;;;;;;;2.27;1.40;;;22.80;29.60;;;;;;5051059;28;20392;-73
2021/01/22 09:48:34;;;;;;;2.30;1.40;;;22.80;29.70;;;;;;5052817;28;20750;-62
2021/01/22 09:51:00;;;;;;;2.00;1.57;;;22.80;29.60;;;;;;5052207;28;20389;-69
2021/01/22 09:53:25;;;;;;;2.30;1.48;;;22.80;29.60;;;;;;5050985;28;20488;-74
2021/01/22 09:55:51;;;;;;;2.17;1.53;;;22.80;29.50;;;;;;5052082;28;20743;-73
2021/01/22 09:58:17;;;;;;;2.00;1.50;;;22.70;29.50;;;;;;5051566;28;20393;-59
2021/01/22 10:00:42;;;;;;;2.10;1.50;;;22.80;29.50;;;;;;5052069;28;20428;-75
2021/01/22 10:03:08;;;;;;;2.40;1.50;;;22.70;29.60;;;;;;5050943;28;20603;-74
2021/01/22 10:05:33;;;;;;;2.70;1.60;;;22.80;29.60;;;;;;5052364;28;20398;-73
2021/01/22 10:07:59;;;;;;;1.90;1.33;;;22.80;29.70;;;;;;5052251;28;20385;-71
2021/01/22 10:10:25;;;;;;;2.30;1.50;;;22.70;29.60;;;;;;5051939;28;20519;-71
2021/01/22 10:12:51;;;;;;;2.77;1.57;;;22.80;29.70;;;;;;5052344;28;20378;-73
2021/01/22 10:15:16;;;;;;;2.00;1.40;;;22.80;29.70;;;;;;5051725;28;20451;-73
2021/01/22 10:17:42;;;;;;;2.70;1.52;;;22.80;29.70;;;;;;5051165;28;20390;-73
2021/01/22 10:20:08;;;;;;;2.10;1.43;;;22.80;29.70;;;;;;5051945;28;20404;-73
2021/01/22 10:22:34;;;;;;;1.98;1.58;;;22.80;29.70;;;;;;5051972;28;20432;-73
2021/01/22 10:24:59;;;;;;;2.20;1.40;;;22.80;29.70;;;;;;5051991;28;20389;-73
2021/01/22 10:27:25;;;;;;;1.80;1.40;;;22.80;29.60;;;;;;5052124;28;20490;-73
2021/01/22 10:29:50;;;;;;;1.70;1.20;;;22.80;29.50;;;;;;5052263;28;21002;-74
2021/01/22 10:32:16;;;;;;;2.07;1.50;;;22.80;29.40;;;;;;5051484;28;20421;-73
2021/01/22 10:34:42;;;;;;;2.20;1.30;;;22.80;29.50;;;;;;5050450;28;20472;-72
2021/01/22 10:37:07;;;;;;;2.50;1.40;;;22.80;29.40;;;;;;5050593;28;20393;-68
2021/01/22 10:39:33;;;;;;;2.07;1.40;;;22.80;29.40;;;;;;5051722;28;20397;-73
2021/01/22 10:41:59;;;;;;;2.40;1.30;;;22.80;29.40;;;;;;5051434;28;20808;-60
2021/01/22 10:44:24;;;;;;;4.00;1.37;;;22.80;29.30;;;;;;5051308;28;20797;-73
2021/01/22 10:46:50;;;;;;;5.43;1.40;;;22.80;29.40;;;;;;5051754;28;20382;-69
2021/01/22 10:49:16;;;;;;;6.82;1.30;;;22.80;29.30;;;;;;5051678;28;20481;-74
2021/01/22 10:51:41;;;;;;;6.63;1.40;;;22.80;29.30;;;;;;5051806;28;20472;-73
2021/01/22 10:54:07;;;;;;;6.80;1.40;;;22.80;29.30;;;;;;5051340;28;20389;-73
2021/01/22 10:56:32;;;;;;;3.83;1.20;;;22.80;29.80;;;;;;5051345;28;20873;-64
2021/01/22 10:58:58;;;;;;;4.63;1.20;;;22.70;30.00;;;;;;5051540;28;20472;-74
2021/01/22 11:01:24;;;;;;;6.50;1.30;;;22.70;30.00;;;;;;5051518;28;20377;-73
2021/01/22 11:03:49;;;;;;;6.10;1.30;;;22.70;30.00;;;;;;5050530;28;20567;-74
2021/01/22 11:06:16;;;;;;;4.35;1.20;;;22.70;29.90;;;;;;5051002;28;20531;-74
2021/01/22 11:08:41;;;;;;;7.03;1.30;;;22.70;29.90;;;;;;5051428;28;20393;-73
2021/01/22 11:11:08;;;;;;;5.30;1.20;;;22.70;29.90;;;;;;5051193;28;20390;-74
2021/01/22 11:13:34;;;;;;;4.35;1.20;;;22.70;30.00;;;;;;5050033;28;20390;-73
2021/01/22 11:15:59;;;;;;;3.42;1.10;;;22.80;30.00;;;;;;5051015;28;20789;-74
2021/01/22 11:18:25;;;;;;;6.67;1.30;;;22.70;30.00;;;;;;5049683;28;20389;-74
2021/01/22 11:20:51;;;;;;;7.68;1.30;;;22.70;30.00;;;;;;5051392;28;20891;-74
2021/01/22 11:23:16;;;;;;;6.17;1.10;;;22.80;30.20;;;;;;5051044;28;20539;-74
2021/01/22 11:25:43;;;;;;;7.18;1.30;;;22.80;30.30;;;;;;5051355;28;20412;-74
2021/01/22 11:28:08;;;;;;;6.05;1.40;;;22.70;30.20;;;;;;5050764;28;20393;-71
2021/01/22 11:30:34;;;;;;;7.77;1.50;;;22.80;30.30;;;;;;5050968;28;20384;-74
2021/01/22 11:33:01;;;;;;;13.27;1.35;;;22.70;30.10;;;;;;5050969;28;20808;-73
2021/01/22 11:35:26;;;;;;;11.35;1.73;;;22.70;30.20;;;;;;5050890;28;20402;-73
2021/01/22 11:37:52;;;;;;;10.13;1.50;;;22.70;30.30;;;;;;5050262;28;20450;-72
2021/01/22 11:40:18;;;;;;;8.75;2.33;;;22.80;30.80;;;;;;5049435;28;21020;-72
2021/01/22 11:42:47;;;;;;;6.03;2.10;;;22.80;30.60;;;;;;5050038;28;20466;-72
2021/01/22 11:45:13;;;;;;;7.40;1.75;;;22.90;29.90;;;;;;5050213;28;20435;-72
2021/01/22 11:47:38;;;;;;;5.75;1.83;;;23.70;31.50;;;;;;5052459;28;20457;-73
2021/01/22 11:50:05;;;;;;;5.25;2.33;;;24.10;30.60;;;;;;5058636;28;20390;-72
2021/01/22 11:52:30;;;;;;;6.18;1.98;;;24.40;30.10;;;;;;5060304;28;20395;-70
2021/01/22 11:54:56;;;;;;;5.83;1.90;;;24.40;29.80;;;;;;5063652;28;20399;-64
2021/01/22 11:57:21;;;;;;;9.43;2.00;;;24.40;29.90;;;;;;5059148;28;20393;-69
2021/01/22 11:59:47;;;;;;;5.17;1.60;;;24.40;29.80;;;;;;5060165;28;20441;-62
2021/01/22 12:02:13;;;;;;;5.37;1.70;;;24.40;29.80;;;;;;5058538;28;20443;-73
2021/01/22 12:04:38;;;;;;;4.10;1.70;;;24.50;29.90;;;;;;5060313;28;20397;-71
2021/01/22 12:07:04;;;;;;;7.77;1.60;;;24.60;29.80;;;;;;5057095;28;20908;-73
2021/01/22 12:09:30;;;;;;;4.60;1.55;;;24.60;29.70;;;;;;5062627;28;20391;-73
2021/01/22 12:11:55;;;;;;;3.70;1.40;;;24.70;29.60;;;;;;5041105;28;20871;-70
2021/01/22 12:14:21;;;;;;;3.60;1.30;;;24.80;29.70;;;;;;5081776;28;20429;-67
2021/01/22 12:16:47;;;;;;;6.70;1.50;;;24.90;29.60;;;;;;5082620;28;20434;-71
2021/01/22 12:19:12;;;;;;;4.97;1.30;;;25.00;29.50;;;;;;5087792;28;20880;-72
2021/01/22 12:21:38;;;;;;;7.67;1.43;;;25.10;29.70;;;;;;5085769;28;20376;-73
2021/01/22 12:24:04;;;;;;;3.53;1.15;;;25.20;29.50;;;;;;5082129;28;20403;-73
2021/01/22 12:26:29;;;;;;;3.40;1.30;;;25.30;29.40;;;;;;5085469;28;20545;-70
2021/01/22 12:28:55;;;;;;;3.65;1.20;;;25.30;29.20;;;;;;5082178;28;20394;-67
2021/01/22 12:31:21;;;;;;;3.00;1.10;;;25.30;29.30;;;;;;5083929;28;20384;-71
2021/01/22 12:33:46;;;;;;;3.10;1.10;;;25.30;29.30;;;;;;5084353;28;20464;-72
2021/01/22 12:36:12;;;;;;;3.83;1.40;;;25.40;29.30;;;;;;5081942;28;20971;-70
2021/01/22 12:38:38;;;;;;;2.63;1.20;;;25.40;29.30;;;;;;5081867;28;20388;-74
2021/01/22 12:41:05;;;;;;;4.13;1.30;;;25.50;29.60;;;;;;5081812;28;20390;-73
2021/01/22 12:43:32;;;;;;;6.65;1.38;;;25.60;29.60;;;;;;5080793;28;20407;-66
2021/01/22 12:45:58;;;;;;;3.33;1.10;;;25.60;29.50;;;;;;5064338;28;20406;-70
2021/01/22 12:48:24;;;;;;;4.60;1.10;;;25.70;29.20;;;;;;5081341;28;20738;-74